ADDS METAR Data INFO
IDs: Format: Raw Decoded Include TAF

Data at: 1859 UTC 22 Sep 2017

METAR for:KLRD (Laredo Intl Apt, TX, US)
Text:KLRD 221856Z 16014G19KT 10SM SCT055 35/21 A2986 RMK AO2 SLP107 T03500206 $
Temperature: 35.0°C ( 95°F)
Dewpoint: 20.6°C ( 69°F) [RH = 43%]
Pressure (altimeter):29.86 inches Hg (1011.3 mb) [Sea level pressure: 1010.7 mb]
Winds:from the SSE (160 degrees) at 16 MPH (14 knots; 7.2 m/s) gusting to 22 MPH (19 knots; 9.8 m/s)
Visibility:10 or more sm (16+ km)
Ceiling:at least 12,000 feet AGL
Clouds: scattered clouds at 5500 feet AGL
QC Flag:SOME DATA ABOVE MAY BE INACCURATE!!!"$" is an indication the sensor requires maintenance.